Time;durP1;ratioP1;P1;durP2;ratioP2;P2;SDS_P1;SDS_P2;PMS_P1;PMS_P2;Temp;Humidity;BMP_temperature;BMP_pressure;BME280_temperature;BME280_humidity;BME280_pressure;Samples;Min_cycle;Max_cycle;Signal;HPM_P1;HPM_P2
2022/04/14 00:00:07;;;;;;;;;;;12.10;99.90;;;;;;5051379;28;19920;-75
2022/04/14 00:02:32;;;;;;;;;;;12.00;99.90;;;;;;5051002;28;19971;-75
2022/04/14 00:04:58;;;;;;;;;;;12.00;99.90;;;;;;5050848;28;20313;-75
2022/04/14 00:07:23;;;;;;;;;;;11.90;99.90;;;;;;5082217;28;19931;-75
2022/04/14 00:09:49;;;;;;;;;;;11.90;99.90;;;;;;5070932;28;19920;-75
2022/04/14 00:12:15;;;;;;;;;;;11.90;99.90;;;;;;5084429;28;19927;-75
2022/04/14 00:14:40;;;;;;;;;;;11.90;99.90;;;;;;5069005;28;19924;-75
2022/04/14 00:17:06;;;;;;;;;;;11.80;99.90;;;;;;5069144;28;19920;-75
2022/04/14 00:19:31;;;;;;;;;;;11.80;99.90;;;;;;5085096;28;20307;-75
2022/04/14 00:21:57;;;;;;;;;;;11.80;99.90;;;;;;5068572;28;19920;-75
2022/04/14 00:24:22;;;;;;;;;;;11.80;99.90;;;;;;5084412;28;19920;-75
2022/04/14 00:26:48;;;;;;;;;;;11.80;99.90;;;;;;5084547;28;19926;-75
2022/04/14 00:29:13;;;;;;;;;;;11.80;99.90;;;;;;5084348;28;19920;-76
2022/04/14 00:31:39;;;;;;;;;;;11.70;99.90;;;;;;5084672;28;19927;-75
2022/04/14 00:34:05;;;;;;;;;;;11.70;99.90;;;;;;5069179;28;19974;-75
2022/04/14 00:36:33;;;;;;;;;;;11.70;99.90;;;;;;5084991;28;19925;-76
2022/04/14 00:38:58;;;;;;;;;;;11.70;99.90;;;;;;5087911;28;20041;-76
2022/04/14 00:41:24;;;;;;;;;;;11.70;99.90;;;;;;5087987;28;19928;-75
2022/04/14 00:43:51;;;;;;;;;;;11.70;99.90;;;;;;5088360;28;20010;-76
2022/04/14 00:46:17;;;;;;;;;;;11.70;99.90;;;;;;5071426;28;19975;-75
2022/04/14 00:48:43;;;;;;;;;;;11.60;99.90;;;;;;5087144;28;19977;-75
2022/04/14 00:51:08;;;;;;;;;;;11.70;99.90;;;;;;5087818;28;19928;-75
2022/04/14 00:53:34;;;;;;;;;;;11.60;99.90;;;;;;5087745;28;19967;-76
2022/04/14 00:55:59;;;;;;;;;;;11.70;99.90;;;;;;5087250;28;20689;-76
2022/04/14 00:58:26;;;;;;;;;;;11.70;99.90;;;;;;5087445;28;19968;-75
2022/04/14 01:00:52;;;;;;;;;;;11.70;99.90;;;;;;5087636;28;19991;-75
2022/04/14 01:03:18;;;;;;;;;;;11.70;99.90;;;;;;5081503;28;20422;-75
2022/04/14 01:05:45;;;;;;;;;;;11.70;99.90;;;;;;5033625;28;19968;-75
2022/04/14 01:08:13;;;;;;;;;;;11.60;99.90;;;;;;5061574;28;20383;-75
2022/04/14 01:10:40;;;;;;;;;;;11.70;99.90;;;;;;5057787;28;20292;-75
2022/04/14 01:13:06;;;;;;;;;;;11.60;99.90;;;;;;5033447;28;19943;-75
2022/04/14 01:15:32;;;;;;;;;;;11.60;99.90;;;;;;5086665;28;20298;-76
2022/04/14 01:17:57;;;;;;;;;;;11.60;99.90;;;;;;5087523;28;20336;-75
2022/04/14 01:20:23;;;;;;;;;;;11.50;99.90;;;;;;5086943;28;19928;-75
2022/04/14 01:22:56;;;;;;;;;;;11.50;99.90;;;;;;5080569;28;19924;-75
2022/04/14 01:25:23;;;;;;;;;;;11.50;99.90;;;;;;5069340;28;19946;-76
2022/04/14 01:27:50;;;;;;;;;;;11.50;99.90;;;;;;5069334;28;19936;-76
2022/04/14 01:30:15;;;;;;;;;;;11.50;99.90;;;;;;5085854;28;19931;-75
2022/04/14 01:32:41;;;;;;;;;;;11.40;99.90;;;;;;5086691;28;19920;-75
2022/04/14 01:35:07;;;;;;;;;;;11.40;99.90;;;;;;5068962;28;20425;-75
2022/04/14 01:37:32;;;;;;;;;;;11.40;99.90;;;;;;5068894;28;20298;-75
2022/04/14 01:39:58;;;;;;;;;;;11.30;99.90;;;;;;5086096;28;19971;-76
2022/04/14 01:42:23;;;;;;;;;;;11.30;99.90;;;;;;5085619;28;19920;-76
2022/04/14 01:44:49;;;;;;;;;;;11.30;99.90;;;;;;5069279;28;20043;-75
2022/04/14 01:47:14;;;;;;;;;;;11.30;99.90;;;;;;5068972;28;19924;-75
2022/04/14 01:49:40;;;;;;;;;;;11.20;99.90;;;;;;5070546;28;20038;-76
2022/04/14 01:52:05;;;;;;;;;;;11.20;99.90;;;;;;5068678;28;19920;-75
2022/04/14 01:54:31;;;;;;;;;;;11.20;99.90;;;;;;5085361;28;19935;-75
2022/04/14 01:56:56;;;;;;;;;;;11.20;99.90;;;;;;5069766;28;19920;-76
2022/04/14 01:59:22;;;;;;;;;;;11.20;99.90;;;;;;5086081;28;19923;-75
2022/04/14 02:01:47;;;;;;;;;;;11.20;99.90;;;;;;5070861;28;19921;-76
2022/04/14 02:04:13;;;;;;;;;;;11.10;99.90;;;;;;5070739;28;19925;-75
2022/04/14 02:06:38;;;;;;;;;;;11.10;99.90;;;;;;5086228;28;19920;-76
2022/04/14 02:09:04;;;;;;;;;;;11.10;99.90;;;;;;5086299;28;20561;-76
2022/04/14 02:11:30;;;;;;;;;;;11.10;99.90;;;;;;5087566;28;20402;-76
2022/04/14 02:13:55;;;;;;;;;;;11.10;99.90;;;;;;5084026;28;20001;-76
2022/04/14 02:16:21;;;;;;;;;;;11.00;99.90;;;;;;5072305;28;19920;-76
2022/04/14 02:18:46;;;;;;;;;;;11.00;99.90;;;;;;5072280;28;19927;-75
2022/04/14 02:21:12;;;;;;;;;;;11.00;99.90;;;;;;5072891;28;19920;-75
2022/04/14 02:23:37;;;;;;;;;;;11.00;99.90;;;;;;5072702;28;19973;-76
2022/04/14 02:26:03;;;;;;;;;;;10.90;99.90;;;;;;5072357;28;19930;-76
2022/04/14 02:28:28;;;;;;;;;;;10.90;99.90;;;;;;5072479;28;20182;-75
2022/04/14 02:30:54;;;;;;;;;;;10.90;99.90;;;;;;5090130;28;19981;-76
2022/04/14 02:33:19;;;;;;;;;;;10.90;99.90;;;;;;5072485;28;19920;-76
2022/04/14 02:35:45;;;;;;;;;;;10.80;99.90;;;;;;5072016;28;19977;-76
2022/04/14 02:38:11;;;;;;;;;;;10.80;99.90;;;;;;5071722;28;19919;-76
2022/04/14 02:40:36;;;;;;;;;;;10.80;99.90;;;;;;5072922;28;19943;-76
2022/04/14 02:43:02;;;;;;;;;;;10.70;99.90;;;;;;5072075;28;20405;-76
2022/04/14 02:45:27;;;;;;;;;;;10.70;99.90;;;;;;5071943;28;19920;-76
2022/04/14 02:47:53;;;;;;;;;;;10.70;99.90;;;;;;5072230;28;19920;-75
2022/04/14 02:50:21;;;;;;;;;;;10.60;99.90;;;;;;5071902;28;20427;-76
2022/04/14 02:52:47;;;;;;;;;;;10.60;99.90;;;;;;5055630;28;19924;-76
2022/04/14 02:55:13;;;;;;;;;;;10.60;99.90;;;;;;5071944;28;19924;-75
2022/04/14 02:57:39;;;;;;;;;;;10.50;99.90;;;;;;5072215;28;20340;-76
2022/04/14 03:00:05;;;;;;;;;;;10.50;99.90;;;;;;5071194;28;19927;-75
2022/04/14 03:02:31;;;;;;;;;;;10.50;99.90;;;;;;5072069;28;19924;-75
2022/04/14 03:04:58;;;;;;;;;;;10.40;99.90;;;;;;5071855;28;20575;-77
2022/04/14 03:07:24;;;;;;;;;;;10.40;99.90;;;;;;5071973;28;19926;-75
2022/04/14 03:09:49;;;;;;;;;;;10.40;99.90;;;;;;5072096;28;20375;-76
2022/04/14 03:12:15;;;;;;;;;;;10.30;99.90;;;;;;5071203;28;19923;-76
2022/04/14 03:14:40;;;;;;;;;;;10.30;99.90;;;;;;5068254;28;19920;-76
2022/04/14 03:17:06;;;;;;;;;;;10.30;99.90;;;;;;5035119;28;19920;-76
2022/04/14 03:19:31;;;;;;;;;;;10.30;99.90;;;;;;5051624;28;19982;-75
2022/04/14 03:21:58;;;;;;;;;;;10.20;99.90;;;;;;5051604;28;19931;-76
2022/04/14 03:24:23;;;;;;;;;;;10.20;99.90;;;;;;5051322;28;19924;-75
2022/04/14 03:26:49;;;;;;;;;;;10.20;99.90;;;;;;5051826;28;19920;-75
2022/04/14 03:29:14;;;;;;;;;;;10.10;99.90;;;;;;5051529;28;19924;-75
2022/04/14 03:31:40;;;;;;;;;;;10.10;99.90;;;;;;5051718;28;19920;-75
2022/04/14 03:34:05;;;;;;;;;;;10.10;99.90;;;;;;5051472;28;19939;-76
2022/04/14 03:36:31;;;;;;;;;;;10.00;99.90;;;;;;5069488;28;19920;-76
2022/04/14 03:38:57;;;;;;;;;;;10.00;99.90;;;;;;5034710;28;19971;-75
2022/04/14 03:41:22;;;;;;;;;;;9.90;99.90;;;;;;5051841;28;19930;-75
2022/04/14 03:43:48;;;;;;;;;;;9.90;99.90;;;;;;5068639;28;19975;-75
2022/04/14 03:46:15;;;;;;;;;;;9.90;99.90;;;;;;5067970;28;19967;-75
2022/04/14 03:48:42;;;;;;;;;;;9.80;99.90;;;;;;5051521;28;19927;-75
2022/04/14 03:51:09;;;;;;;;;;;9.80;99.90;;;;;;5034702;28;19924;-75
2022/04/14 03:53:34;;;;;;;;;;;9.80;99.90;;;;;;5068125;28;20398;-75
2022/04/14 03:56:00;;;;;;;;;;;9.80;99.90;;;;;;5051429;28;19967;-76
2022/04/14 03:58:25;;;;;;;;;;;9.70;99.90;;;;;;5051401;28;19924;-75
2022/04/14 04:00:51;;;;;;;;;;;9.70;99.90;;;;;;5068028;28;19920;-75
2022/04/14 04:03:16;;;;;;;;;;;9.70;99.90;;;;;;5068277;28;20160;-76
2022/04/14 04:05:42;;;;;;;;;;;9.70;99.90;;;;;;5051306;28;20362;-75
2022/04/14 04:08:08;;;;;;;;;;;9.70;99.90;;;;;;5068273;28;20287;-75
2022/04/14 04:10:33;;;;;;;;;;;9.70;99.90;;;;;;5034775;28;19920;-76
2022/04/14 04:12:59;;;;;;;;;;;9.70;99.90;;;;;;5053473;28;19920;-75
2022/04/14 04:15:24;;;;;;;;;;;9.70;99.90;;;;;;5072730;28;19958;-75
2022/04/14 04:17:53;;;;;;;;;;;9.70;99.90;;;;;;5054937;28;19924;-75
2022/04/14 04:20:19;;;;;;;;;;;9.70;99.90;;;;;;5054928;28;20011;-75
2022/04/14 04:22:44;;;;;;;;;;;9.60;99.90;;;;;;5072791;28;19924;-75
2022/04/14 04:25:10;;;;;;;;;;;9.60;99.90;;;;;;5072177;28;19924;-75
2022/04/14 04:27:36;;;;;;;;;;;9.50;99.90;;;;;;5072813;28;19920;-75
2022/04/14 04:30:06;;;;;;;;;;;9.50;99.90;;;;;;5072478;28;19959;-75
2022/04/14 04:32:34;;;;;;;;;;;9.50;99.90;;;;;;5071393;28;19921;-75
2022/04/14 04:35:01;;;;;;;;;;;9.50;99.90;;;;;;5071844;28;20544;-75
2022/04/14 04:37:27;;;;;;;;;;;9.40;99.90;;;;;;5071097;28;20405;-75
2022/04/14 04:39:52;;;;;;;;;;;9.40;99.90;;;;;;5072524;28;19920;-75
2022/04/14 04:42:18;;;;;;;;;;;9.40;99.90;;;;;;5072285;28;19975;-75
2022/04/14 04:44:43;;;;;;;;;;;9.30;99.90;;;;;;5072459;28;19932;-75
2022/04/14 04:47:09;;;;;;;;;;;9.30;99.90;;;;;;5054757;28;19995;-75
2022/04/14 04:49:34;;;;;;;;;;;9.30;99.90;;;;;;5072099;28;20398;-75
2022/04/14 04:52:00;;;;;;;;;;;9.30;99.90;;;;;;5072051;28;20412;-75
2022/04/14 04:54:25;;;;;;;;;;;9.30;99.90;;;;;;5054113;28;19920;-75
2022/04/14 04:56:51;;;;;;;;;;;9.30;99.90;;;;;;5072071;28;20003;-75
2022/04/14 04:59:16;;;;;;;;;;;9.30;99.90;;;;;;5053892;28;19978;-76
2022/04/14 05:01:42;;;;;;;;;;;9.30;99.90;;;;;;5053652;28;19921;-75
2022/04/14 05:04:09;;;;;;;;;;;9.20;99.90;;;;;;5037696;28;19931;-75
2022/04/14 05:06:34;;;;;;;;;;;9.20;99.90;;;;;;5070760;28;20077;-75
2022/04/14 05:09:00;;;;;;;;;;;9.20;99.90;;;;;;5053415;28;20015;-75
2022/04/14 05:11:25;;;;;;;;;;;9.30;99.90;;;;;;5053827;28;19920;-76
2022/04/14 05:13:51;;;;;;;;;;;9.20;99.90;;;;;;5079551;28;19982;-76
2022/04/14 05:16:16;;;;;;;;;;;9.20;99.90;;;;;;5091990;28;20626;-75
2022/04/14 05:18:42;;;;;;;;;;;9.20;99.90;;;;;;5091549;28;20006;-76
2022/04/14 05:21:08;;;;;;;;;;;9.20;99.90;;;;;;5090400;28;19930;-75
2022/04/14 05:23:33;;;;;;;;;;;9.30;99.90;;;;;;5090194;28;19974;-75
2022/04/14 05:25:59;;;;;;;;;;;9.30;99.90;;;;;;5091718;28;19973;-76
2022/04/14 05:28:25;;;;;;;;;;;9.30;99.90;;;;;;5091605;28;19924;-75
2022/04/14 05:30:51;;;;;;;;;;;9.30;99.90;;;;;;5091958;28;19920;-75
2022/04/14 05:33:16;;;;;;;;;;;9.30;99.90;;;;;;5091771;28;19920;-76
2022/04/14 05:35:44;;;;;;;;;;;9.40;99.90;;;;;;5091686;28;20422;-76
2022/04/14 05:38:09;;;;;;;;;;;9.40;99.90;;;;;;5091556;28;19920;-76
2022/04/14 05:40:41;;;;;;;;;;;9.40;99.90;;;;;;5091718;28;19920;-75
2022/04/14 05:43:16;;;;;;;;;;;9.50;99.90;;;;;;5090979;28;19920;-76
2022/04/14 05:45:44;;;;;;;;;;;9.50;99.90;;;;;;5087153;28;19920;-76
2022/04/14 05:48:12;;;;;;;;;;;9.60;99.90;;;;;;5083497;28;19927;-75
2022/04/14 05:50:37;;;;;;;;;;;9.60;99.90;;;;;;5091592;28;19920;-76
2022/04/14 05:53:03;;;;;;;;;;;9.60;99.90;;;;;;5089115;28;20482;-76
2022/04/14 05:55:29;;;;;;;;;;;9.70;99.90;;;;;;5087093;28;19920;-75
2022/04/14 05:57:54;;;;;;;;;;;9.70;99.90;;;;;;5080146;28;20391;-75
2022/04/14 06:00:20;;;;;;;;;;;9.80;99.90;;;;;;5070650;28;20348;-75
2022/04/14 06:02:45;;;;;;;;;;;9.80;99.90;;;;;;5071178;28;19920;-75
2022/04/14 06:05:11;;;;;;;;;;;9.90;99.90;;;;;;5070871;28;20340;-75
2022/04/14 06:07:36;;;;;;;;;;;9.90;99.90;;;;;;5070838;28;19920;-75
2022/04/14 06:10:02;;;;;;;;;;;9.90;99.90;;;;;;5076878;28;19999;-75
2022/04/14 06:12:28;;;;;;;;;;;10.00;99.90;;;;;;5086752;28;19920;-75
2022/04/14 06:14:53;;;;;;;;;;;10.00;99.90;;;;;;5076525;28;19921;-75
2022/04/14 06:17:19;;;;;;;;;;;10.00;99.90;;;;;;5070737;28;19920;-76
2022/04/14 06:19:44;;;;;;;;;;;10.00;99.90;;;;;;5073657;28;20015;-76
2022/04/14 06:22:10;;;;;;;;;;;10.00;99.90;;;;;;5090400;28;20390;-76
2022/04/14 06:24:35;;;;;;;;;;;10.00;99.90;;;;;;5090647;28;20496;-75
2022/04/14 06:27:01;;;;;;;;;;;10.00;99.90;;;;;;5089187;28;19919;-75
2022/04/14 06:29:26;;;;;;;;;;;10.10;99.90;;;;;;5071564;28;20391;-75
2022/04/14 06:31:52;;;;;;;;;;;10.10;99.90;;;;;;5071526;28;20264;-75
2022/04/14 06:34:17;;;;;;;;;;;10.10;99.90;;;;;;5089508;28;19924;-75
2022/04/14 06:36:43;;;;;;;;;;;10.20;99.90;;;;;;5089544;28;19920;-75
2022/04/14 06:39:12;;;;;;;;;;;10.30;99.90;;;;;;5055430;28;19924;-75
2022/04/14 06:41:41;;;;;;;;;;;10.30;99.90;;;;;;5090587;28;19927;-75
2022/04/14 06:44:06;;;;;;;;;;;10.30;99.90;;;;;;5084661;28;19924;-75
2022/04/14 06:46:32;;;;;;;;;;;10.40;99.90;;;;;;5070701;28;19920;-75
2022/04/14 06:48:57;;;;;;;;;;;10.50;99.90;;;;;;5073396;28;19920;-76
2022/04/14 06:51:23;;;;;;;;;;;10.50;99.90;;;;;;5088741;28;19920;-75
2022/04/14 06:53:48;;;;;;;;;;;10.60;99.90;;;;;;5088665;28;19920;-75
2022/04/14 06:56:14;;;;;;;;;;;10.60;99.90;;;;;;5088553;28;19931;-76
2022/04/14 06:58:41;;;;;;;;;;;10.80;99.90;;;;;;5071725;28;19927;-76
2022/04/14 07:01:07;;;;;;;;;;;10.80;99.90;;;;;;5077184;28;19924;-75
2022/04/14 07:03:32;;;;;;;;;;;10.90;99.90;;;;;;5070169;28;20011;-76
2022/04/14 07:06:00;;;;;;;;;;;11.00;99.90;;;;;;5082487;28;19923;-76
2022/04/14 07:08:26;;;;;;;;;;;11.00;99.90;;;;;;5088854;28;19920;-76
2022/04/14 07:10:52;;;;;;;;;;;11.10;99.90;;;;;;5090042;28;20301;-76
2022/04/14 07:13:17;;;;;;;;;;;11.20;99.90;;;;;;5088794;28;19920;-76
2022/04/14 07:15:43;;;;;;;;;;;11.20;99.90;;;;;;5090037;28;19920;-76
2022/04/14 07:18:08;;;;;;;;;;;11.30;99.90;;;;;;5072213;28;20255;-76
2022/04/14 07:20:34;;;;;;;;;;;11.30;99.90;;;;;;5088586;28;19928;-76
2022/04/14 07:23:02;;;;;;;;;;;11.50;99.90;;;;;;5069822;28;19991;-76
2022/04/14 07:25:29;;;;;;;;;;;11.50;99.90;;;;;;5055162;28;20393;-76
2022/04/14 07:27:54;;;;;;;;;;;11.50;99.90;;;;;;5071793;28;19919;-78
2022/04/14 07:30:20;;;;;;;;;;;11.60;99.90;;;;;;5087409;28;19923;-75
2022/04/14 07:32:46;;;;;;;;;;;11.70;99.90;;;;;;5081732;28;19920;-75
2022/04/14 07:35:12;;;;;;;;;;;11.70;99.90;;;;;;5054453;28;20459;-75
2022/04/14 07:37:38;;;;;;;;;;;11.80;99.90;;;;;;5085816;28;19932;-75
2022/04/14 07:40:05;;;;;;;;;;;11.80;99.90;;;;;;5069777;28;19924;-75
2022/04/14 07:42:31;;;;;;;;;;;11.90;99.90;;;;;;5086357;28;20395;-75
2022/04/14 07:44:57;;;;;;;;;;;11.90;99.90;;;;;;5089399;28;19920;-75
2022/04/14 07:47:22;;;;;;;;;;;12.00;99.90;;;;;;5075335;28;19920;-75
2022/04/14 07:49:48;;;;;;;;;;;12.10;99.90;;;;;;5072000;28;19955;-76
2022/04/14 07:52:13;;;;;;;;;;;12.10;99.90;;;;;;5075822;28;20026;-75
2022/04/14 07:54:39;;;;;;;;;;;12.20;99.90;;;;;;5093596;28;20401;-76
2022/04/14 07:57:04;;;;;;;;;;;12.30;99.90;;;;;;5093300;28;19928;-75
2022/04/14 07:59:30;;;;;;;;;;;12.30;99.90;;;;;;5093319;28;20026;-76
2022/04/14 08:02:00;;;;;;;;;;;12.40;99.90;;;;;;5093637;28;20024;-75
2022/04/14 08:04:26;;;;;;;;;;;12.40;99.90;;;;;;5092936;28;20583;-75
2022/04/14 08:06:52;;;;;;;;;;;12.60;99.90;;;;;;5073974;28;19976;-75
2022/04/14 08:09:17;;;;;;;;;;;12.60;99.90;;;;;;5093379;28;19928;-76
2022/04/14 08:11:43;;;;;;;;;;;12.70;99.90;;;;;;5091610;28;19920;-76
2022/04/14 08:14:08;;;;;;;;;;;12.70;99.90;;;;;;5093116;28;19924;-76
2022/04/14 08:16:34;;;;;;;;;;;12.80;99.90;;;;;;5090376;28;20368;-76
2022/04/14 08:18:59;;;;;;;;;;;12.90;99.90;;;;;;5093200;28;19989;-75
2022/04/14 08:21:25;;;;;;;;;;;13.00;99.90;;;;;;5091126;28;20061;-75
2022/04/14 08:23:52;;;;;;;;;;;13.10;99.90;;;;;;5093077;28;20306;-75
2022/04/14 08:26:17;;;;;;;;;;;13.20;99.90;;;;;;5092555;28;20963;-76
2022/04/14 08:28:43;;;;;;;;;;;13.20;99.90;;;;;;5091985;28;19999;-76
2022/04/14 08:31:10;;;;;;;;;;;13.40;99.90;;;;;;5090663;28;19930;-75
2022/04/14 08:33:36;;;;;;;;;;;13.50;99.90;;;;;;5092600;28;20038;-76
2022/04/14 08:36:03;;;;;;;;;;;13.50;99.90;;;;;;5073717;28;19927;-75
2022/04/14 08:38:28;;;;;;;;;;;13.60;99.90;;;;;;5057692;28;19924;-75
2022/04/14 08:41:00;;;;;;;;;;;13.70;99.90;;;;;;5092225;28;20879;-76
2022/04/14 08:43:33;;;;;;;;;;;13.80;99.90;;;;;;5092871;28;19931;-76
2022/04/14 08:45:59;;;;;;;;;;;13.90;99.90;;;;;;5090205;28;19920;-76
2022/04/14 08:48:26;;;;;;;;;;;14.00;99.90;;;;;;5074569;28;19924;-76
2022/04/14 08:50:52;;;;;;;;;;;14.00;99.90;;;;;;5074568;28;19919;-75
2022/04/14 08:53:18;;;;;;;;;;;14.10;99.90;;;;;;5074010;28;19924;-76
2022/04/14 08:55:44;;;;;;;;;;;14.20;99.90;;;;;;5072761;28;19969;-75
2022/04/14 08:58:13;;;;;;;;;;;14.30;99.90;;;;;;5090717;28;20012;-75
2022/04/14 09:00:39;;;;;;;;;;;14.40;99.90;;;;;;5072357;28;19920;-76
2022/04/14 09:03:05;;;;;;;;;;;14.40;99.90;;;;;;5090865;28;19927;-75
2022/04/14 09:05:31;;;;;;;;;;;14.50;99.90;;;;;;5090298;28;19931;-75
2022/04/14 09:07:56;;;;;;;;;;;14.60;99.90;;;;;;5092182;28;19919;-76
2022/04/14 09:10:22;;;;;;;;;;;14.70;99.90;;;;;;5074151;28;19920;-75
2022/04/14 09:12:48;;;;;;;;;;;14.80;99.90;;;;;;5091376;28;20393;-76
2022/04/14 09:15:15;;;;;;;;;;;14.90;99.90;;;;;;5091594;28;19931;-77
2022/04/14 09:17:40;;;;;;;;;;;15.00;99.90;;;;;;5087795;28;19927;-76
2022/04/14 09:20:24;;;;;;;;;;;15.00;99.90;;;;;;5090976;28;20003;-76
2022/04/14 09:23:09;;;;;;;;;;;15.20;99.90;;;;;;5073874;28;20090;-76
2022/04/14 09:25:35;;;;;;;;;;;15.80;99.90;;;;;;5091863;28;19923;-76
2022/04/14 09:28:13;;;;;;;;;;;16.50;99.90;;;;;;5090285;28;19974;-76
2022/04/14 09:30:39;;;;;;;;;;;17.20;99.90;;;;;;5073255;28;20007;-75
2022/04/14 09:33:05;;;;;;;;;;;17.60;99.90;;;;;;5091749;28;19919;-75
2022/04/14 09:35:33;;;;;;;;;;;17.80;99.90;;;;;;5091495;28;19924;-75
2022/04/14 09:38:04;;;;;;;;;;;17.90;99.90;;;;;;5091630;28;19920;-75
2022/04/14 09:40:30;;;;;;;;;;;18.30;99.90;;;;;;5091777;28;19920;-75
2022/04/14 09:42:56;;;;;;;;;;;18.60;99.90;;;;;;5072688;28;19999;-75
2022/04/14 09:45:23;;;;;;;;;;;18.80;99.90;;;;;;5071595;28;19927;-75
2022/04/14 09:47:50;;;;;;;;;;;19.00;99.90;;;;;;5090019;28;19920;-76
2022/04/14 09:50:44;;;;;;;;;;;19.30;99.90;;;;;;5086362;28;19970;-75
2022/04/14 09:53:11;;;;;;;;;;;19.50;99.90;;;;;;5088157;28;19931;-75
2022/04/14 09:55:37;;;;;;;;;;;19.90;99.90;;;;;;5091196;28;19939;-75
2022/04/14 09:58:10;;;;;;;;;;;19.50;99.90;;;;;;5090446;28;20294;-75
2022/04/14 10:00:39;;;;;;;;;;;18.90;99.90;;;;;;5091264;28;19970;-75
2022/04/14 10:03:24;;;;;;;;;;;18.80;99.90;;;;;;5090936;28;19936;-75
2022/04/14 10:05:54;;;;;;;;;;;18.50;99.90;;;;;;5091084;28;19928;-75
2022/04/14 10:08:20;;;;;;;;;;;18.50;99.90;;;;;;5091252;28;19923;-75
2022/04/14 10:10:46;;;;;;;;;;;18.40;99.90;;;;;;5072994;28;20518;-75
2022/04/14 10:13:16;;;;;;;;;;;18.10;99.90;;;;;;5090421;28;20382;-75
2022/04/14 10:15:42;;;;;;;;;;;17.70;99.90;;;;;;5090490;28;19920;-75
2022/04/14 10:18:09;;;;;;;;;;;17.80;99.90;;;;;;5090491;28;20053;-75
2022/04/14 10:20:36;;;;;;;;;;;18.40;99.90;;;;;;5091108;28;20444;-75
2022/04/14 10:23:02;;;;;;;;;;;19.00;99.90;;;;;;5070117;28;19974;-75
2022/04/14 10:25:28;;;;;;;;;;;19.50;99.90;;;;;;5072914;28;19925;-75
2022/04/14 10:27:55;;;;;;;;;;;19.90;99.90;;;;;;5055136;28;19926;-75
2022/04/14 10:30:21;;;;;;;;;;;20.20;99.90;;;;;;5086476;28;19928;-75
2022/04/14 10:32:47;;;;;;;;;;;20.10;99.90;;;;;;5052914;28;19927;-75
2022/04/14 10:35:12;;;;;;;;;;;19.90;99.90;;;;;;5103118;28;19920;-75
2022/04/14 10:37:42;;;;;;;;;;;19.40;99.40;;;;;;5089862;28;19926;-75
2022/04/14 10:40:08;;;;;;;;;;;19.30;99.90;;;;;;5088272;28;19920;-75
2022/04/14 10:42:34;;;;;;;;;;;19.60;99.90;;;;;;5090302;28;19924;-75
2022/04/14 10:45:13;;;;;;;;;;;20.00;99.90;;;;;;5054589;28;19920;-75
2022/04/14 10:47:42;;;;;;;;;;;20.40;99.20;;;;;;5087288;28;19924;-75
2022/04/14 10:50:17;;;;;;;;;;;20.90;97.40;;;;;;5070127;28;20382;-75
2022/04/14 10:52:59;;;;;;;;;;;21.30;97.20;;;;;;5065086;28;19926;-76
2022/04/14 10:55:35;;;;;;;;;;;21.70;97.30;;;;;;5071657;28;19920;-76
2022/04/14 10:58:01;;;;;;;;;;;21.80;96.40;;;;;;5071423;28;20428;-76
2022/04/14 11:00:34;;;;;;;;;;;21.10;94.70;;;;;;5055153;28;19923;-76
2022/04/14 11:03:01;;;;;;;;;;;20.80;97.00;;;;;;5072320;28;20015;-76
2022/04/14 11:05:39;;;;;;;;;;;20.70;98.00;;;;;;5072319;28;19977;-76
2022/04/14 11:08:24;;;;;;;;;;;20.90;97.90;;;;;;5087395;28;20309;-76
2022/04/14 11:11:10;;;;;;;;;;;21.10;97.20;;;;;;5052055;28;19927;-76
2022/04/14 11:13:51;;;;;;;;;;;21.30;96.70;;;;;;5055797;28;19921;-76
2022/04/14 11:16:35;;;;;;;;;;;21.50;96.80;;;;;;5068200;28;19927;-76
2022/04/14 11:19:20;;;;;;;;;;;21.80;96.20;;;;;;5051798;28;20007;-76
2022/04/14 11:22:08;;;;;;;;;;;21.70;94.30;;;;;;5052747;28;19921;-76
2022/04/14 11:24:41;;;;;;;;;;;21.50;92.80;;;;;;5056555;28;19923;-76
2022/04/14 11:27:11;;;;;;;;;;;21.80;94.30;;;;;;5087619;28;19924;-76
2022/04/14 11:29:37;;;;;;;;;;;21.80;92.50;;;;;;5089727;28;20366;-76
2022/04/14 11:32:03;;;;;;;;;;;21.70;90.30;;;;;;5087907;28;19959;-76
2022/04/14 11:34:32;;;;;;;;;;;21.50;90.00;;;;;;5090130;28;19970;-76
2022/04/14 11:36:58;;;;;;;;;;;21.10;90.10;;;;;;5089847;28;19963;-76
2022/04/14 11:39:25;;;;;;;;;;;21.00;92.00;;;;;;5087822;28;19931;-75
2022/04/14 11:41:54;;;;;;;;;;;20.70;91.50;;;;;;5088820;28;20019;-76
2022/04/14 11:44:21;;;;;;;;;;;20.70;92.70;;;;;;5088583;28;20022;-76
2022/04/14 11:46:51;;;;;;;;;;;20.60;92.00;;;;;;5066637;28;20775;-76
2022/04/14 11:49:21;;;;;;;;;;;20.60;92.70;;;;;;5086945;28;19920;-76
2022/04/14 11:51:50;;;;;;;;;;;20.60;92.80;;;;;;5088310;28;20452;-76
2022/04/14 11:54:19;;;;;;;;;;;20.50;92.10;;;;;;5089313;28;20011;-76
2022/04/14 11:56:52;;;;;;;;;;;20.50;92.60;;;;;;5088678;28;19954;-76
2022/04/14 11:59:38;;;;;;;;;;;20.70;91.90;;;;;;5068422;28;20666;-75
2022/04/14 12:02:05;;;;;;;;;;;20.90;93.00;;;;;;5087462;28;19927;-76
2022/04/14 12:04:37;;;;;;;;;;;21.10;93.40;;;;;;5088702;28;20010;-76
2022/04/14 12:07:03;;;;;;;;;;;21.10;94.00;;;;;;5086170;28;19927;-76
2022/04/14 12:09:29;;;;;;;;;;;21.20;94.10;;;;;;5070380;28;19920;-76
2022/04/14 12:11:54;;;;;;;;;;;21.10;93.30;;;;;;5087141;28;20011;-75
2022/04/14 12:14:20;;;;;;;;;;;21.00;92.80;;;;;;5069534;28;19920;-76
2022/04/14 12:16:50;;;;;;;;;;;20.90;92.30;;;;;;5084666;28;19924;-76
2022/04/14 12:19:15;;;;;;;;;;;20.50;91.40;;;;;;5070403;28;19924;-76
2022/04/14 12:21:41;;;;;;;;;;;20.10;91.90;;;;;;5070427;28;19927;-76
2022/04/14 12:24:06;;;;;;;;;;;19.80;93.20;;;;;;5067869;28;19930;-76
2022/04/14 12:26:35;;;;;;;;;;;19.60;93.50;;;;;;5085829;28;19920;-76
2022/04/14 12:29:01;;;;;;;;;;;19.50;94.80;;;;;;5082509;28;20046;-76
2022/04/14 12:31:29;;;;;;;;;;;19.20;95.00;;;;;;5070137;28;20102;-77
2022/04/14 12:33:58;;;;;;;;;;;19.20;96.60;;;;;;5073753;28;19928;-77
2022/04/14 12:36:34;;;;;;;;;;;19.20;96.60;;;;;;5073974;28;19920;-76
2022/04/14 12:39:00;;;;;;;;;;;19.10;96.20;;;;;;5072845;28;19920;-76
2022/04/14 12:41:32;;;;;;;;;;;18.90;97.10;;;;;;5074624;28;19977;-76
2022/04/14 12:43:57;;;;;;;;;;;18.80;97.00;;;;;;5082119;28;20401;-76
2022/04/14 12:46:27;;;;;;;;;;;18.60;97.50;;;;;;5087023;28;19927;-76
2022/04/14 12:49:03;;;;;;;;;;;18.50;97.70;;;;;;5058138;28;19924;-76
2022/04/14 12:51:39;;;;;;;;;;;18.30;97.80;;;;;;5092373;28;19920;-76
2022/04/14 12:54:05;;;;;;;;;;;18.10;98.70;;;;;;5074326;28;19931;-76
2022/04/14 12:56:33;;;;;;;;;;;18.00;98.90;;;;;;5072885;28;20297;-75
2022/04/14 12:59:15;;;;;;;;;;;17.90;99.40;;;;;;5074271;28;19927;-75
2022/04/14 13:01:59;;;;;;;;;;;17.80;99.70;;;;;;5073920;28;20446;-75
2022/04/14 13:04:39;;;;;;;;;;;17.80;99.90;;;;;;5072275;28;20358;-75
2022/04/14 13:07:08;;;;;;;;;;;17.80;99.90;;;;;;5090949;28;19974;-75
2022/04/14 13:09:38;;;;;;;;;;;17.70;99.90;;;;;;5074294;28;19963;-75
2022/04/14 13:12:07;;;;;;;;;;;17.70;99.90;;;;;;5085213;28;19920;-75
2022/04/14 13:14:33;;;;;;;;;;;17.40;99.90;;;;;;5077212;28;20367;-75
2022/04/14 13:17:00;;;;;;;;;;;17.30;99.90;;;;;;5053947;28;19970;-75
2022/04/14 13:19:26;;;;;;;;;;;17.30;99.90;;;;;;5068416;28;19978;-75
2022/04/14 13:21:52;;;;;;;;;;;17.30;99.90;;;;;;5069722;28;19964;-75
2022/04/14 13:24:17;;;;;;;;;;;17.20;99.90;;;;;;5071914;28;19995;-75
2022/04/14 13:26:43;;;;;;;;;;;17.20;99.90;;;;;;5071684;28;19921;-75
2022/04/14 13:29:10;;;;;;;;;;;17.20;99.90;;;;;;5068200;28;19971;-75
2022/04/14 13:31:38;;;;;;;;;;;17.20;99.90;;;;;;5066982;28;19921;-75
2022/04/14 13:34:04;;;;;;;;;;;17.30;99.90;;;;;;5070342;28;20001;-75
2022/04/14 13:36:29;;;;;;;;;;;17.60;99.90;;;;;;5071668;28;19975;-75
2022/04/14 13:38:55;;;;;;;;;;;18.00;99.90;;;;;;5087154;28;19924;-75
2022/04/14 13:41:20;;;;;;;;;;;18.30;99.00;;;;;;5071137;28;19920;-75
2022/04/14 13:43:46;;;;;;;;;;;18.50;99.00;;;;;;5069934;28;19921;-75
2022/04/14 13:46:11;;;;;;;;;;;18.20;97.70;;;;;;5069119;28;19924;-75
2022/04/14 13:48:37;;;;;;;;;;;18.00;97.60;;;;;;5068212;28;20286;-75
2022/04/14 13:51:03;;;;;;;;;;;17.80;98.20;;;;;;5051130;28;20421;-75
2022/04/14 13:53:29;;;;;;;;;;;17.90;98.40;;;;;;5070358;28;19931;-75
2022/04/14 13:55:55;;;;;;;;;;;17.80;98.40;;;;;;5070591;28;19924;-75
2022/04/14 13:58:21;;;;;;;;;;;17.90;98.10;;;;;;5084904;28;19920;-75
2022/04/14 14:00:48;;;;;;;;;;;18.30;96.80;;;;;;5070996;28;19927;-75
2022/04/14 14:03:17;;;;;;;;;;;18.70;96.50;;;;;;5052224;28;20019;-75
2022/04/14 14:05:43;;;;;;;;;;;18.90;95.50;;;;;;5069417;28;19921;-75
2022/04/14 14:08:08;;;;;;;;;;;18.80;95.30;;;;;;5070894;28;19924;-75
2022/04/14 14:10:34;;;;;;;;;;;18.60;94.70;;;;;;5070841;28;19921;-75
2022/04/14 14:13:00;;;;;;;;;;;18.60;94.40;;;;;;5084694;28;20310;-75
2022/04/14 14:15:26;;;;;;;;;;;18.70;95.10;;;;;;5090869;28;20366;-75
2022/04/14 14:17:52;;;;;;;;;;;19.10;94.20;;;;;;5067617;28;19927;-75